Time;durP1;ratioP1;P1;durP2;ratioP2;P2;SDS_P1;SDS_P2;PMS_P1;PMS_P2;Temp;Humidity;BMP_temperature;BMP_pressure;BME280_temperature;BME280_humidity;BME280_pressure;Samples;Min_cycle;Max_cycle;Signal;HPM_P1;HPM_P2
2022/08/27 00:00:32;;;;;;;23.77;15.55;;;;;;;14.45;78.06;101489.50;4980232;28;20053;-46
2022/08/27 00:02:59;;;;;;;17.95;14.40;;;;;;;14.38;78.20;101489.28;4987466;28;20101;-46
2022/08/27 00:05:26;;;;;;;17.98;13.73;;;;;;;14.35;78.30;101484.44;4980583;28;20490;-46
2022/08/27 00:07:52;;;;;;;16.65;12.25;;;;;;;14.29;78.20;101483.84;4986690;28;20078;-46
2022/08/27 00:10:23;;;;;;;19.17;13.13;;;;;;;14.26;78.50;101484.53;4983810;28;20042;-45
2022/08/27 00:12:50;;;;;;;17.73;13.80;;;;;;;14.21;78.60;101486.75;4988639;28;20046;-45
2022/08/27 00:15:18;;;;;;;17.40;11.85;;;;;;;14.14;78.60;101479.00;4988766;28;20493;-45
2022/08/27 00:17:46;;;;;;;15.57;10.82;;;;;;;14.09;78.62;101481.19;4977160;28;20465;-48
2022/08/27 00:20:16;;;;;;;19.17;13.80;;;;;;;14.07;78.61;101478.78;4975982;28;20082;-45
2022/08/27 00:22:43;;;;;;;16.55;11.82;;;;;;;14.06;78.61;101488.28;4984908;28;20511;-45
2022/08/27 00:25:12;;;;;;;15.95;11.45;;;;;;;14.01;78.51;101481.00;4994876;28;20101;-45
2022/08/27 00:27:39;;;;;;;16.33;10.00;;;;;;;13.97;78.66;101471.72;4990877;28;20042;-45
2022/08/27 00:30:11;;;;;;;14.95;11.18;;;;;;;13.95;78.30;101478.81;4981123;28;20042;-44
2022/08/27 00:32:39;;;;;;;15.65;11.52;;;;;;;13.91;78.48;101475.09;4991286;28;20051;-47
2022/08/27 00:35:07;;;;;;;12.43;9.40;;;;;;;13.83;78.58;101485.19;4981916;28;20038;-48
2022/08/27 00:37:34;;;;;;;12.32;9.40;;;;;;;13.79;78.49;101483.47;4987126;28;20046;-45
2022/08/27 00:40:03;;;;;;;10.88;8.55;;;;;;;13.73;78.50;101482.88;4979551;28;20070;-45
2022/08/27 00:42:30;;;;;;;12.50;8.27;;;;;;;13.72;78.35;101489.59;4976354;28;20043;-47
2022/08/27 00:44:58;;;;;;;11.38;9.13;;;;;;;13.74;78.17;101484.50;4991695;28;20412;-44
2022/08/27 00:47:28;;;;;;;12.48;8.45;;;;;;;13.72;78.21;101489.59;4986469;28;20038;-48
2022/08/27 00:50:07;;;;;;;14.30;10.15;;;;;;;13.65;78.09;101491.34;4979284;28;20059;-45
2022/08/27 00:52:55;;;;;;;13.55;9.50;;;;;;;13.62;78.27;101484.50;4986534;28;20089;-46
2022/08/27 00:55:32;;;;;;;16.77;10.65;;;;;;;13.65;78.10;101492.16;4957951;29;20474;-46
2022/08/27 00:58:06;;;;;;;24.83;13.90;;;;;;;13.65;78.10;101485.78;4985130;28;20042;-46
2022/08/27 01:00:33;;;;;;;18.20;11.95;;;;;;;13.67;78.25;101484.28;4979286;28;20043;-48
2022/08/27 01:03:00;;;;;;;20.23;12.68;;;;;;;13.71;78.13;101490.78;4993020;28;20043;-54
2022/08/27 01:05:27;;;;;;;19.15;12.23;;;;;;;13.73;78.17;101485.66;4981625;28;20396;-53
2022/08/27 01:08:00;;;;;;;17.27;10.75;;;;;;;13.73;78.32;101474.53;4984178;28;20078;-51
2022/08/27 01:10:29;;;;;;;18.40;11.35;;;;;;;13.77;78.23;101471.84;4978289;28;20038;-45
2022/08/27 01:12:56;;;;;;;20.33;13.00;;;;;;;13.83;77.90;101465.72;4988949;28;20039;-45
2022/08/27 01:15:26;;;;;;;15.68;11.20;;;;;;;13.84;78.10;101470.13;4976104;28;20559;-45
2022/08/27 01:17:54;;;;;;;19.60;13.90;;;;;;;13.89;77.74;101469.06;4960587;28;20082;-47
2022/08/27 01:20:25;;;;;;;16.75;11.93;;;;;;;13.87;77.92;101471.41;4979713;28;20385;-47
2022/08/27 01:23:11;;;;;;;18.70;12.85;;;;;;;13.86;77.95;101481.72;4968255;28;20042;-47
2022/08/27 01:25:43;;;;;;;18.83;13.77;;;;;;;13.81;77.92;101472.78;4992585;28;20055;-46
2022/08/27 01:28:12;;;;;;;15.32;11.98;;;;;;;13.80;78.04;101476.72;4984582;28;20051;-46
2022/08/27 01:30:40;;;;;;;16.08;12.07;;;;;;;13.75;78.20;101469.44;4983701;28;20370;-46
2022/08/27 01:33:16;;;;;;;17.13;11.98;;;;;;;13.70;78.03;101461.31;4991241;28;20085;-45
2022/08/27 01:35:46;;;;;;;16.45;11.93;;;;;;;13.64;78.12;101468.25;4989951;28;20507;-47
2022/08/27 01:38:14;;;;;;;15.77;12.05;;;;;;;13.60;78.17;101466.53;4983320;28;20042;-49
2022/08/27 01:41:17;;;;;;;19.13;11.75;;;;;;;13.55;78.22;101464.81;4964522;28;20047;-48
2022/08/27 01:44:05;;;;;;;13.88;10.98;;;;;;;13.49;78.22;101468.97;4972264;28;20058;-47
2022/08/27 01:46:52;;;;;;;14.45;10.55;;;;;;;13.50;78.27;101467.00;4988649;28;20204;-46
2022/08/27 01:49:40;;;;;;;18.65;13.15;;;;;;;13.46;77.94;101469.66;4984488;28;20480;-45
2022/08/27 01:52:30;;;;;;;19.92;13.68;;;;;;;13.43;78.02;101462.00;4991102;28;20452;-50
2022/08/27 01:55:20;;;;;;;18.45;12.50;;;;;;;13.40;77.89;101469.06;4991331;28;20129;-47
2022/08/27 01:58:07;;;;;;;15.55;11.18;;;;;;;13.37;78.17;101468.94;4988432;28;20121;-46
2022/08/27 02:01:04;;;;;;;17.10;12.98;;;;;;;13.30;78.14;101479.84;4967154;28;20188;-45
2022/08/27 02:03:51;;;;;;;17.70;13.40;;;;;;;13.26;78.20;101465.03;4990165;28;20049;-47
2022/08/27 02:06:38;;;;;;;27.08;17.15;;;;;;;13.20;78.45;101466.38;4990774;28;20505;-48
2022/08/27 02:09:25;;;;;;;23.73;18.00;;;;;;;13.18;78.48;101460.38;4983241;28;20042;-46
2022/08/27 02:12:13;;;;;;;20.02;13.90;;;;;;;13.15;78.63;101461.06;4990171;28;20412;-46
2022/08/27 02:15:00;;;;;;;22.45;15.20;;;;;;;13.16;78.54;101471.00;4980460;28;20458;-48
2022/08/27 02:17:47;;;;;;;20.73;13.90;;;;;;;13.24;78.13;101467.31;4984304;28;20408;-46
2022/08/27 02:20:35;;;;;;;31.38;15.85;;;;;;;13.18;78.12;101471.50;4983992;28;20150;-49
2022/08/27 02:23:22;;;;;;;24.02;15.45;;;;;;;13.10;78.31;101464.88;4990601;28;20042;-50
2022/08/27 02:26:09;;;;;;;24.20;15.60;;;;;;;13.03;78.42;101464.59;4974068;28;20129;-46
2022/08/27 02:28:56;;;;;;;24.70;18.40;;;;;;;13.03;78.42;101459.03;4966767;28;20081;-49
2022/08/27 02:31:43;;;;;;;26.60;15.77;;;;;;;12.98;78.64;101464.81;4983210;28;20134;-47
2022/08/27 02:34:31;;;;;;;25.88;17.27;;;;;;;12.95;78.63;101457.16;4981474;28;20043;-47
2022/08/27 02:37:18;;;;;;;17.88;13.75;;;;;;;12.98;78.60;101456.47;4973531;28;20122;-47
2022/08/27 02:40:07;;;;;;;18.00;14.07;;;;;;;13.04;78.26;101455.09;4975455;28;20134;-48
2022/08/27 02:42:54;;;;;;;20.80;14.45;;;;;;;13.04;78.25;101454.28;4974547;28;20158;-48
2022/08/27 02:45:41;;;;;;;26.00;20.80;;;;;;;12.99;78.03;101455.31;4987742;28;20188;-47
2022/08/27 02:48:29;;;;;;;25.83;19.55;;;;;;;12.93;78.20;101453.09;4982724;28;20048;-48
2022/08/27 02:51:16;;;;;;;24.13;18.70;;;;;;;12.94;78.17;101454.72;4960905;28;20154;-48
2022/08/27 02:54:05;;;;;;;22.55;18.45;;;;;;;12.94;77.82;101455.53;4979440;28;20478;-46
2022/08/27 02:56:55;;;;;;;23.58;15.43;;;;;;;12.83;77.98;101463.50;4974619;28;20066;-47
2022/08/27 02:59:42;;;;;;;18.33;12.35;;;;;;;12.74;78.31;101460.00;4974604;28;20137;-46
2022/08/27 07:48:15;;;;;;;3.13;2.15;;;;;;;14.16;74.53;101495.38;4903313;23;20112;-48
2022/08/27 07:55:03;;;;;;;7.03;2.42;;;;;;;14.29;74.16;101510.88;4997203;23;20571;-49
2022/08/27 07:57:51;;;;;;;4.28;2.50;;;;;;;14.34;74.16;101502.31;4990224;28;20452;-46
2022/08/27 08:04:49;;;;;;;4.85;2.63;;;;;;;14.56;74.38;101501.78;4992054;28;20046;-45
2022/08/27 08:07:44;;;;;;;9.13;4.20;;;;;;;14.68;74.43;101501.72;4989414;28;20081;-47
2022/08/27 08:30:17;;;;;;;2.78;1.20;;;;;;;15.89;79.32;101506.56;4991964;28;20042;-48
2022/08/27 08:32:44;;;;;;;13.07;1.55;;;;;;;16.15;80.85;101503.19;4997827;28;20088;-48
2022/08/27 08:35:11;;;;;;;1.92;1.10;;;;;;;16.47;81.10;101498.31;4986806;28;20105;-49
2022/08/27 08:37:38;;;;;;;8.40;2.30;;;;;;;16.94;80.68;101496.88;4997322;28;20431;-46
2022/08/27 08:40:05;;;;;;;3.55;1.13;;;;;;;17.60;79.01;101501.34;4996326;28;20051;-45
2022/08/27 08:42:55;;;;;;;4.90;1.30;;;;;;;18.48;75.84;101497.06;4997931;28;20046;-46
2022/08/27 08:45:44;;;;;;;3.15;1.20;;;;;;;19.70;72.10;101501.63;4994928;28;20449;-48
2022/08/27 08:48:33;;;;;;;6.05;1.63;;;;;;;20.87;67.59;101514.41;4989422;28;20058;-48
2022/08/27 08:51:39;;;;;;;6.85;1.65;;;;;;;22.14;63.55;101500.47;4986764;28;20129;-46
2022/08/27 08:54:31;;;;;;;2.22;1.10;;;;;;;23.07;59.67;101510.25;4992821;28;20181;-47
2022/08/27 08:57:01;;;;;;;4.00;1.20;;;;;;;23.73;57.04;101519.50;4997228;28;20042;-47
2022/08/27 08:59:36;;;;;;;4.55;1.40;;;;;;;24.16;54.43;101514.28;4997072;28;20053;-46
2022/08/27 09:02:10;;;;;;;2.67;1.33;;;;;;;24.43;52.62;101514.41;4996955;28;20046;-45
2022/08/27 09:04:41;;;;;;;3.50;0.80;;;;;;;24.81;50.74;101511.13;4996104;28;20050;-47
2022/08/27 09:07:18;;;;;;;6.07;1.17;;;;;;;25.15;49.28;101513.13;4996432;28;20496;-46
2022/08/27 09:10:09;;;;;;;3.05;1.15;;;;;;;25.51;48.37;101507.75;4995401;28;20501;-46
2022/08/27 09:12:35;;;;;;;2.97;0.88;;;;;;;25.90;47.30;101507.88;4980209;28;20475;-46
2022/08/27 09:15:19;;;;;;;1.77;0.80;;;;;;;26.10;46.00;101516.47;4995266;28;20093;-48
2022/08/27 09:18:09;;;;;;;1.23;1.08;;;;;;;26.29;44.16;101507.22;4995775;28;20051;-48
2022/08/27 09:21:19;;;;;;;4.38;0.88;;;;;;;25.88;44.89;101511.16;4995674;28;20121;-47
2022/08/27 09:24:17;;;;;;;6.50;1.42;;;;;;;26.17;43.81;101511.50;4994534;28;20043;-46
2022/08/27 09:27:05;;;;;;;7.82;1.30;;;;;;;26.62;43.18;101517.50;4996250;28;20504;-46
2022/08/27 09:29:54;;;;;;;3.90;0.68;;;;;;;27.13;41.47;101516.84;4994920;28;20097;-46
2022/08/27 09:32:41;;;;;;;1.92;0.95;;;;;;;27.03;40.44;101514.25;4983835;28;20439;-47
2022/08/27 09:35:44;;;;;;;1.98;0.90;;;;;;;25.48;41.53;101515.06;4995829;28;20197;-45
2022/08/27 09:42:41;;;;;;;2.20;0.77;;;;;;;23.32;45.10;101512.94;4989387;28;20042;-46
2022/08/27 09:50:30;;;;;;;3.28;1.13;;;;;;;24.79;42.71;101513.59;4989912;28;20049;-48
2022/08/27 09:53:24;;;;;;;3.08;0.73;;;;;;;25.73;41.77;101501.31;4987518;28;20496;-47
2022/08/27 09:59:55;;;;;;;4.57;1.73;;;;;;;25.94;39.84;101500.94;4983255;28;20212;-45
2022/08/27 10:11:19;;;;;;;2.53;0.80;;;;;;;26.46;39.62;101492.66;4992219;28;20058;-47
2022/08/27 10:21:38;;;;;;;2.33;0.75;;;;;;;26.00;39.75;101489.88;4992798;28;20070;-48
2022/08/27 10:24:23;;;;;;;3.55;1.00;;;;;;;25.35;40.09;101497.84;4995467;28;20042;-46
2022/08/27 10:31:25;;;;;;;5.97;1.20;;;;;;;24.93;41.41;101495.63;4985360;28;20504;-50
2022/08/27 10:34:21;;;;;;;1.98;0.93;;;;;;;25.71;40.35;101489.56;4993592;28;20575;-46
2022/08/27 10:37:01;;;;;;;4.55;0.95;;;;;;;25.99;39.59;101489.09;4994547;28;20034;-45
2022/08/27 10:44:02;;;;;;;2.38;0.98;;;;;;;23.91;43.17;101491.06;4980456;28;20050;-46
2022/08/27 10:47:59;;;;;;;2.58;1.23;;;;;;;23.66;43.65;101490.50;4994197;28;20070;-47
2022/08/27 10:51:43;;;;;;;3.22;0.88;;;;;;;23.06;44.73;101486.03;4894735;29;20538;-47
2022/08/27 10:54:47;;;;;;;1.67;1.40;;;;;;;22.33;46.72;101490.78;4905908;29;20427;-46
2022/08/27 10:57:51;;;;;;;3.75;0.98;;;;;;;22.21;47.27;101479.94;4892372;28;20050;-50
2022/08/27 11:00:33;;;;;;;;;;;;;;;22.64;46.82;101480.59;4973885;28;20051;-49
2022/08/27 11:03:14;;;;;;;3.42;1.02;;;;;;;22.94;46.83;101478.84;4972709;28;20029;-45
2022/08/27 11:05:46;;;;;;;5.68;1.38;;;;;;;22.92;47.13;101470.00;4973444;28;20046;-46
2022/08/27 11:08:20;;;;;;;5.30;1.98;;;;;;;22.91;47.66;101478.88;4972152;28;20050;-46
2022/08/27 11:10:56;;;;;;;4.10;1.00;;;;;;;22.88;47.42;101476.84;4972713;28;20066;-45
2022/08/27 11:13:26;;;;;;;4.32;1.08;;;;;;;22.81;47.54;101474.09;4973037;28;20047;-46
2022/08/27 11:15:55;;;;;;;7.55;1.25;;;;;;;22.61;47.54;101479.38;4972469;28;20089;-47
2022/08/27 11:18:51;;;;;;;1.98;0.80;;;;;;;22.35;48.01;101475.03;4971018;28;20409;-46
2022/08/27 11:21:38;;;;;;;2.72;0.90;;;;;;;22.28;48.42;101477.91;4953929;28;20054;-49
2022/08/27 11:24:42;;;;;;;2.42;1.27;;;;;;;22.01;48.59;101470.28;4972481;28;20085;-51
2022/08/27 11:27:10;;;;;;;3.92;0.90;;;;;;;21.73;48.88;101471.13;4955694;29;20047;-49
2022/08/27 11:30:29;;;;;;;3.58;1.05;;;;;;;21.58;49.34;101472.31;4968763;28;20413;-48
2022/08/27 11:33:07;;;;;;;2.90;0.70;;;;;;;21.41;49.74;101471.13;4931127;28;20505;-46
2022/08/27 11:35:48;;;;;;;1.42;0.82;;;;;;;21.29;50.05;101474.31;4974485;28;20038;-48
2022/08/27 11:38:48;;;;;;;3.17;0.60;;;;;;;21.20;50.16;101474.72;4972177;28;20449;-49
2022/08/27 11:41:22;;;;;;;3.55;0.60;;;;;;;21.15;50.80;101469.47;4973182;28;20085;-48
2022/08/27 11:43:51;;;;;;;0.70;0.45;;;;;;;21.08;51.13;101469.44;4956542;28;20485;-46
2022/08/27 11:46:27;;;;;;;4.85;1.05;;;;;;;21.12;51.00;101467.47;4973421;28;20085;-45
2022/08/27 11:49:00;;;;;;;1.25;0.88;;;;;;;21.08;51.36;101463.81;4974023;28;20070;-46
2022/08/27 11:51:39;;;;;;;1.83;0.47;;;;;;;21.11;51.63;101471.47;4972776;28;20043;-46
2022/08/27 11:54:09;;;;;;;2.03;0.90;;;;;;;21.12;51.11;101470.28;4974502;28;20055;-46
2022/08/27 11:56:42;;;;;;;2.03;0.80;;;;;;;21.09;51.21;101459.81;4990784;28;20108;-45
2022/08/27 11:59:29;;;;;;;2.42;0.80;;;;;;;20.98;51.48;101470.22;4992518;28;20085;-46
2022/08/27 12:02:08;;;;;;;3.53;0.80;;;;;;;20.99;51.60;101456.94;4992364;28;20046;-45
2022/08/27 12:04:39;;;;;;;6.03;0.77;;;;;;;21.08;51.48;101469.44;4993284;28;20072;-46
2022/08/27 12:07:21;;;;;;;3.28;0.60;;;;;;;21.10;50.87;101467.03;4990481;28;20058;-46
2022/08/27 12:10:05;;;;;;;4.03;0.57;;;;;;;21.03;51.55;101466.19;4992143;28;20443;-46
2022/08/27 12:12:52;;;;;;;3.22;0.73;;;;;;;21.14;51.21;101461.41;4993277;28;20436;-48
2022/08/27 12:15:27;;;;;;;1.80;0.88;;;;;;;21.15;50.88;101469.47;4994801;28;20038;-46
2022/08/27 12:18:38;;;;;;;1.05;0.50;;;;;;;21.15;50.57;101463.03;4992349;28;20094;-45
2022/08/27 12:21:28;;;;;;;3.50;0.57;;;;;;;21.25;50.77;101473.50;4990048;28;20116;-47
2022/08/27 12:24:24;;;;;;;1.67;0.60;;;;;;;21.45;50.10;101473.91;4992941;28;20085;-45
2022/08/27 12:27:11;;;;;;;2.08;0.50;;;;;;;21.60;49.94;101478.38;4994220;28;20070;-46
2022/08/27 12:29:48;;;;;;;3.65;0.60;;;;;;;21.71;49.53;101484.81;4992077;28;20058;-47
2022/08/27 12:39:37;;;;;;;6.40;1.48;;;;;;;21.75;49.46;101485.59;4987236;28;20061;-45
2022/08/27 12:42:11;;;;;;;;;;;;;;;21.81;49.68;101473.53;4993067;28;20034;-47
2022/08/27 12:44:38;;;;;;;4.15;0.77;;;;;;;21.90;49.59;101475.13;4994122;28;19960;-45
2022/08/27 12:47:12;;;;;;;3.25;1.52;;;;;;;21.96;50.06;101479.97;4992004;28;20042;-46
2022/08/27 12:49:52;;;;;;;2.55;1.10;;;;;;;22.01;49.03;101475.94;4991781;28;20055;-46
2022/08/27 12:53:02;;;;;;;3.40;0.60;;;;;;;21.93;48.85;101475.13;4992952;28;20041;-47
2022/08/27 12:56:25;;;;;;;1.20;0.80;;;;;;;21.88;48.76;101471.91;4992300;28;20109;-46
2022/08/27 12:59:53;;;;;;;2.03;0.57;;;;;;;21.75;48.77;101474.31;4985614;28;20052;-47
2022/08/27 13:03:13;;;;;;;3.08;0.50;;;;;;;21.66;49.00;101471.09;4916081;29;20111;-46
2022/08/27 13:06:00;;;;;;;5.63;0.80;;;;;;;21.91;48.90;101465.47;4995462;28;20121;-45
2022/08/27 13:08:53;;;;;;;3.70;0.47;;;;;;;22.27;48.49;101465.00;4996343;28;20109;-44
2022/08/27 13:11:54;;;;;;;2.38;0.60;;;;;;;22.39;48.23;101475.84;4993985;28;20623;-44
2022/08/27 13:14:41;;;;;;;9.37;2.63;;;;;;;22.29;48.26;101465.38;4996837;28;20050;-44
2022/08/27 13:17:35;;;;;;;2.80;0.52;;;;;;;22.27;48.27;101465.00;4994302;28;20296;-47
2022/08/27 13:20:24;;;;;;;1.55;0.57;;;;;;;22.42;48.52;101469.38;4995761;28;20136;-47
2022/08/27 13:23:23;;;;;;;2.25;0.65;;;;;;;22.60;48.21;101465.69;4993678;28;20042;-53
2022/08/27 13:25:52;;;;;;;3.00;0.57;;;;;;;22.65;48.45;101460.44;4994140;28;20042;-44
2022/08/27 13:28:23;;;;;;;2.65;0.70;;;;;;;22.71;47.82;101460.81;4996524;28;20448;-48
2022/08/27 13:30:51;;;;;;;2.15;0.60;;;;;;;22.67;47.41;101462.84;4994978;28;20046;-47
2022/08/27 13:33:28;;;;;;;2.03;0.60;;;;;;;22.70;47.35;101467.69;4995889;28;20496;-45
2022/08/27 13:35:59;;;;;;;7.25;0.93;;;;;;;22.78;47.27;101455.94;4977055;28;20042;-48
2022/08/27 13:38:29;;;;;;;3.35;0.95;;;;;;;22.97;47.52;101465.94;4993875;28;20416;-46
2022/08/27 13:41:05;;;;;;;2.90;0.85;;;;;;;23.09;47.11;101459.78;4985337;28;20046;-45
2022/08/27 13:43:37;;;;;;;2.75;0.57;;;;;;;23.20;47.34;101456.88;4996550;28;20046;-45
2022/08/27 13:46:10;;;;;;;2.72;1.13;;;;;;;23.29;47.42;101460.88;4993442;28;20464;-47
2022/08/27 13:48:43;;;;;;;3.08;0.50;;;;;;;23.33;47.15;101450.34;4995738;28;20146;-46
2022/08/27 13:51:11;;;;;;;5.90;2.38;;;;;;;23.30;46.62;101456.03;4995772;28;20472;-47
2022/08/27 13:56:34;;;;;;;3.00;1.13;;;;;;;23.39;46.68;101453.56;4975394;28;20101;-45
2022/08/27 13:59:11;;;;;;;1.90;0.20;;;;;;;23.59;46.44;101455.41;4994415;28;20042;-49
2022/08/27 14:01:53;;;;;;;2.55;0.68;;;;;;;23.60;46.07;101459.84;4983396;28;20072;-48
2022/08/27 14:04:25;;;;;;;0.95;0.43;;;;;;;23.55;46.28;101463.13;4992470;28;20077;-46
2022/08/27 14:06:53;;;;;;;2.88;0.70;;;;;;;23.49;46.48;101449.84;4977253;28;20061;-50
2022/08/27 14:09:28;;;;;;;3.08;2.15;;;;;;;23.42;46.87;101461.22;4993482;28;20069;-45
2022/08/27 14:12:07;;;;;;;3.45;0.93;;;;;;;23.48;46.42;101460.31;4992784;28;20050;-45
2022/08/27 14:14:40;;;;;;;1.88;0.50;;;;;;;23.48;46.65;101463.16;4992726;28;20042;-45
2022/08/27 14:17:25;;;;;;;1.27;0.70;;;;;;;23.40;46.58;101472.13;4993323;28;20606;-46
2022/08/27 14:20:00;;;;;;;1.23;0.70;;;;;;;23.28;47.11;101470.56;4994201;28;20499;-45
2022/08/27 14:22:27;;;;;;;4.28;0.60;;;;;;;23.26;47.35;101473.00;4993383;28;20500;-48
2022/08/27 14:24:54;;;;;;;2.88;0.70;;;;;;;23.20;46.97;101466.19;4989798;28;20539;-47
2022/08/27 14:27:21;;;;;;;1.52;0.85;;;;;;;22.94;47.19;101466.75;4990402;28;20049;-48
2022/08/27 14:29:48;;;;;;;4.00;0.98;;;;;;;22.76;47.62;101466.84;4994650;28;20048;-45
2022/08/27 14:32:17;;;;;;;3.22;1.10;;;;;;;22.57;47.94;101472.13;4992679;28;20101;-36
2022/08/27 14:38:38;;;;;;;1.08;0.50;;;;;;;22.36;48.71;101464.56;4993848;28;20361;-45
2022/08/27 14:41:07;;;;;;;3.78;0.80;;;;;;;22.41;48.47;101462.13;4993273;28;20420;-45
2022/08/27 14:43:34;;;;;;;2.33;0.50;;;;;;;22.53;48.64;101466.50;4993981;28;20050;-46
2022/08/27 14:46:03;;;;;;;2.15;0.52;;;;;;;22.67;47.85;101458.00;4993815;28;20066;-47
2022/08/27 14:48:32;;;;;;;2.08;0.70;;;;;;;22.73;48.19;101450.72;4980626;28;20432;-45
2022/08/27 14:51:08;;;;;;;0.70;0.40;;;;;;;22.78;48.27;101453.13;4992918;28;20046;-45
2022/08/27 14:53:35;;;;;;;2.05;0.90;;;;;;;22.92;48.08;101463.53;4994111;28;20492;-44
2022/08/27 14:56:02;;;;;;;5.97;0.93;;;;;;;23.11;47.74;101459.38;4990799;28;20100;-46
2022/08/27 14:58:28;;;;;;;1.95;0.70;;;;;;;23.22;47.45;101466.56;4991863;28;20515;-45
2022/08/27 15:00:56;;;;;;;4.68;0.85;;;;;;;23.31;46.85;101464.09;4992737;28;20455;-45
2022/08/27 15:03:30;;;;;;;2.80;0.60;;;;;;;23.28;46.84;101470.56;4993163;28;20042;-44
2022/08/27 15:06:00;;;;;;;1.67;0.50;;;;;;;23.15;46.81;101460.16;4992785;28;20049;-44
2022/08/27 15:08:27;;;;;;;1.90;0.57;;;;;;;23.08;46.90;101466.66;4992528;28;20554;-45
2022/08/27 15:10:57;;;;;;;3.55;0.63;;;;;;;23.21;46.74;101464.97;4991943;28;20093;-44
2022/08/27 15:13:24;;;;;;;2.28;0.55;;;;;;;23.32;46.25;101459.25;4992676;28;20108;-44
2022/08/27 15:15:51;;;;;;;4.65;0.70;;;;;;;23.49;46.27;101463.97;4993163;28;20042;-45
2022/08/27 15:18:21;;;;;;;0.73;0.70;;;;;;;23.75;46.14;101465.38;4990615;28;20056;-46
2022/08/27 15:20:48;;;;;;;3.20;0.82;;;;;;;24.00;45.66;101460.28;4990063;28;20050;-45
2022/08/27 15:23:15;;;;;;;3.33;0.75;;;;;;;23.97;45.53;101458.28;4991660;28;20038;-47
2022/08/27 15:25:44;;;;;;;2.67;0.52;;;;;;;23.93;45.92;101466.00;4990590;28;20046;-44
2022/08/27 15:28:11;;;;;;;3.85;0.75;;;;;;;23.98;45.51;101462.72;4991230;28;20101;-44
2022/08/27 15:30:38;;;;;;;2.50;0.45;;;;;;;24.07;45.52;101457.34;4993222;28;20174;-44
2022/08/27 15:33:05;;;;;;;1.63;0.50;;;;;;;24.06;45.48;101464.25;4989852;28;20512;-44
2022/08/27 15:35:33;;;;;;;6.30;1.05;;;;;;;24.07;46.16;101463.00;4992953;28;20062;-44
2022/08/27 15:38:00;;;;;;;3.15;0.70;;;;;;;24.34;45.90;101463.97;4991861;28;20043;-44
2022/08/27 15:44:24;;;;;;;3.42;0.40;;;;;;;24.72;44.37;101457.03;4988949;28;20074;-48
2022/08/27 15:54:35;;;;;;;2.43;0.60;;;;;;;24.98;44.43;101454.66;4943915;28;1272966;-44
2022/08/27 16:12:24;;;;;;;5.82;0.77;;;;;;;24.95;43.31;101459.16;4991700;28;20077;-45
2022/08/27 16:14:54;;;;;;;1.67;0.73;;;;;;;24.95;42.90;101464.00;4992756;28;20057;-45
2022/08/27 16:24:52;;;;;;;3.65;0.57;;;;;;;24.52;43.54;101453.22;4989011;28;20050;-45
2022/08/27 16:27:19;;;;;;;6.32;0.75;;;;;;;24.42;43.38;101459.81;4992732;28;20074;-47
2022/08/27 16:29:46;;;;;;;1.55;0.68;;;;;;;24.44;43.21;101467.88;4992804;28;20035;-43
2022/08/27 16:35:53;;;;;;;3.95;0.52;;;;;;;24.20;43.74;101461.28;4996285;28;20038;-44
2022/08/27 16:41:48;;;;;;;3.97;0.90;;;;;;;24.03;44.04;101462.25;4989640;28;20034;-46
2022/08/27 16:44:16;;;;;;;1.55;0.60;;;;;;;23.97;43.91;101472.41;4995608;28;20050;-45
2022/08/27 16:46:43;;;;;;;2.67;0.60;;;;;;;23.80;43.80;101451.56;4996248;28;20046;-44
2022/08/27 16:51:56;;;;;;;1.98;0.70;;;;;;;23.47;44.04;101450.25;4982943;28;20066;-43
2022/08/27 16:54:23;;;;;;;1.70;0.73;;;;;;;23.52;44.00;101457.47;4994191;28;20047;-44
2022/08/27 16:56:50;;;;;;;1.55;0.60;;;;;;;23.45;44.58;101457.56;4995497;28;20101;-42
2022/08/27 16:59:16;;;;;;;2.47;0.63;;;;;;;23.64;44.52;101465.47;4995960;28;20074;-47
2022/08/27 17:01:48;;;;;;;1.27;0.63;;;;;;;23.81;44.47;101452.38;4994995;28;20057;-42
2022/08/27 17:04:15;;;;;;;3.63;0.75;;;;;;;24.00;43.97;101460.28;4996933;28;20359;-41
2022/08/27 17:06:55;;;;;;;1.95;0.40;;;;;;;24.01;44.02;101453.41;4996080;28;20046;-43
2022/08/27 17:09:23;;;;;;;2.65;0.65;;;;;;;23.97;43.58;101458.28;4996717;28;20050;-42
2022/08/27 17:11:55;;;;;;;1.65;0.60;;;;;;;23.75;43.94;101456.91;4983246;28;20508;-38
2022/08/27 17:14:23;;;;;;;4.68;0.82;;;;;;;23.45;44.03;101451.91;4993779;28;20050;-40
2022/08/27 17:16:52;;;;;;;3.65;1.20;;;;;;;23.19;44.29;101456.13;4994997;28;20038;-40
2022/08/27 17:19:21;;;;;;;3.13;0.98;;;;;;;23.01;45.01;101452.56;4995719;28;20042;-41
2022/08/27 17:21:48;;;;;;;2.60;0.80;;;;;;;22.95;44.86;101457.84;4993115;28;20108;-41
2022/08/27 17:24:16;;;;;;;5.65;3.25;;;;;;;23.02;44.83;101451.38;4996101;28;20038;-40
2022/08/27 17:26:43;;;;;;;1.85;0.68;;;;;;;23.09;44.93;101454.13;4993889;28;20054;-40
2022/08/27 17:29:10;;;;;;;5.97;1.50;;;;;;;23.13;45.01;101449.28;4996416;28;20097;-47
2022/08/27 17:31:40;;;;;;;2.38;1.30;;;;;;;23.09;44.56;101445.66;4995596;28;20389;-52
2022/08/27 17:34:14;;;;;;;3.05;1.00;;;;;;;23.05;44.95;101456.19;4995189;28;20042;-51
2022/08/27 17:36:41;;;;;;;4.20;0.90;;;;;;;22.85;45.42;101446.63;4995936;28;20105;-46
2022/08/27 17:39:10;;;;;;;2.15;0.68;;;;;;;22.70;45.46;101447.91;4993724;28;20661;-46
2022/08/27 17:41:42;;;;;;;2.25;0.85;;;;;;;22.57;45.12;101447.56;4994013;28;20392;-47
2022/08/27 17:44:22;;;;;;;3.45;1.33;;;;;;;22.36;45.57;101451.28;4990301;28;20137;-49
2022/08/27 17:46:55;;;;;;;2.22;0.65;;;;;;;22.15;45.58;101450.53;4989595;28;20042;-48
2022/08/27 17:57:16;;;;;;;1.15;0.38;;;;;;;21.81;46.88;101450.16;4985891;28;20108;-48
2022/08/27 17:59:43;;;;;;;3.83;1.27;;;;;;;21.56;47.35;101452.19;4994020;28;20038;-48
2022/08/27 18:06:21;;;;;;;4.13;0.82;;;;;;;21.27;47.68;101456.19;4981440;28;20479;-47
2022/08/27 18:08:47;;;;;;;2.55;0.60;;;;;;;21.23;47.99;101451.38;4991200;28;20302;-46
2022/08/27 18:11:56;;;;;;;2.38;1.00;;;;;;;21.31;47.70;101459.84;4990544;28;20039;-46
2022/08/27 18:14:23;;;;;;;4.25;2.00;;;;;;;21.39;47.32;101455.81;4989712;28;20038;-47
2022/08/27 18:20:40;;;;;;;1.40;0.90;;;;;;;21.43;47.15;101462.25;4990622;28;20045;-46
2022/08/27 18:27:34;;;;;;;4.20;1.00;;;;;;;21.16;47.61;101465.44;4982748;28;20039;-46
2022/08/27 18:30:03;;;;;;;3.72;0.60;;;;;;;20.93;48.17;101459.34;4984548;28;20078;-45
2022/08/27 18:32:30;;;;;;;4.78;1.15;;;;;;;20.69;48.29;101467.69;4983197;28;20050;-47
2022/08/27 18:35:01;;;;;;;3.05;0.57;;;;;;;20.50;47.99;101463.19;4988632;28;20038;-48
2022/08/27 18:45:00;;;;;;;6.47;2.13;;;;;;;19.98;49.13;101456.88;4985605;28;20089;-49
2022/08/27 18:47:31;;;;;;;2.53;0.70;;;;;;;19.91;49.23;101462.44;4985428;28;20628;-50
2022/08/27 18:49:58;;;;;;;3.72;0.60;;;;;;;19.87;49.36;101461.63;4983742;28;20382;-49
2022/08/27 18:52:25;;;;;;;4.45;0.90;;;;;;;19.76;49.98;101466.34;4983718;28;20060;-47
2022/08/27 18:54:52;;;;;;;1.15;0.50;;;;;;;19.73;50.26;101461.53;4988843;28;20080;-49
2022/08/27 18:57:19;;;;;;;3.17;0.65;;;;;;;19.71;50.86;101468.72;4986714;28;20046;-47
2022/08/27 18:59:46;;;;;;;3.70;0.88;;;;;;;19.72;50.70;101467.53;4984831;28;20039;-45
2022/08/27 19:02:17;;;;;;;2.47;0.70;;;;;;;19.65;51.20;101465.47;4966005;28;20090;-46
2022/08/27 19:04:44;;;;;;;3.45;0.73;;;;;;;19.52;50.90;101466.16;4982107;28;20497;-47
2022/08/27 19:11:02;;;;;;;3.30;1.30;;;;;;;19.35;51.45;101467.59;4987644;28;20393;-47
2022/08/27 19:13:30;;;;;;;4.25;0.98;;;;;;;19.31;51.65;101477.97;4990544;28;20046;-47
2022/08/27 19:16:17;;;;;;;3.45;0.98;;;;;;;19.26;52.01;101469.91;4986798;28;20105;-51
2022/08/27 19:18:45;;;;;;;2.00;1.00;;;;;;;19.22;52.36;101469.88;4986638;28;20093;-48
2022/08/27 19:25:28;;;;;;;4.40;0.70;;;;;;;18.95;53.13;101464.78;4989614;28;20074;-50
2022/08/27 19:27:55;;;;;;;3.30;0.60;;;;;;;18.87;53.41;101477.13;4986970;28;20432;-48
2022/08/27 19:30:22;;;;;;;6.30;1.08;;;;;;;18.90;53.32;101465.13;4986735;28;20484;-50
2022/08/27 19:32:50;;;;;;;4.15;1.00;;;;;;;18.93;52.95;101478.41;4986556;28;20038;-50
2022/08/27 19:35:20;;;;;;;4.05;0.90;;;;;;;18.89;53.08;101480.34;4989269;28;20034;-47